createdAt,value
2022-12-13T00:01:30.668Z,11.65
2022-12-13T00:04:00.573Z,11.43
2022-12-13T00:06:29.187Z,11.82
2022-12-13T00:08:57.034Z,12.60
2022-12-13T00:11:24.293Z,13.93
2022-12-13T00:13:51.713Z,12.63
2022-12-13T00:16:24.330Z,11.18
2022-12-13T00:18:56.791Z,11.75
2022-12-13T00:21:27.851Z,12.23
2022-12-13T00:23:55.498Z,12.38
2022-12-13T00:26:31.405Z,12.55
2022-12-13T00:29:04.986Z,11.25
2022-12-13T00:34:20.292Z,11.05
2022-12-13T00:36:48.417Z,12.15
2022-12-13T00:39:16.962Z,10.60
2022-12-13T00:41:45.086Z,12.02
2022-12-13T00:44:14.165Z,10.15
2022-12-13T00:46:42.070Z,10.95
2022-12-13T00:49:13.005Z,9.60
2022-12-13T00:51:40.465Z,11.63
2022-12-13T00:54:07.802Z,11.13
2022-12-13T00:56:36.926Z,9.43
2022-12-13T00:59:04.803Z,12.73
2022-12-13T01:01:34.502Z,8.48
2022-12-13T01:04:03.780Z,10.27
2022-12-13T01:06:36.512Z,9.70
2022-12-13T01:09:05.438Z,10.27
2022-12-13T01:11:33.171Z,11.55
2022-12-13T01:14:00.402Z,11.10
2022-12-13T01:16:28.037Z,10.75
2022-12-13T01:18:56.680Z,9.27
2022-12-13T01:21:23.882Z,10.88
2022-12-13T01:23:51.253Z,9.70
2022-12-13T01:26:21.668Z,9.05
2022-12-13T01:28:49.697Z,9.52
2022-12-13T01:31:20.307Z,10.23
2022-12-13T01:33:48.298Z,8.80
2022-12-13T01:36:27.102Z,8.23
2022-12-13T01:38:58.507Z,10.07
2022-12-13T01:41:28.969Z,8.95
2022-12-13T01:44:03.421Z,9.57
2022-12-13T01:46:36.214Z,8.88
2022-12-13T01:49:19.351Z,9.10
2022-12-13T01:51:55.979Z,7.85
2022-12-13T01:54:33.566Z,9.30
2022-12-13T01:57:06.465Z,9.80
2022-12-13T01:59:37.471Z,8.65
2022-12-13T02:02:06.101Z,7.90
2022-12-13T02:04:51.892Z,8.88
2022-12-13T02:07:23.783Z,8.90
2022-12-13T02:09:57.954Z,8.90
2022-12-13T02:12:31.045Z,8.63
2022-12-13T02:15:18.388Z,8.35
2022-12-13T02:18:07.514Z,9.25
2022-12-13T02:20:51.591Z,8.55
2022-12-13T02:23:39.790Z,9.63
2022-12-13T02:26:31.241Z,9.50
2022-12-13T02:29:29.951Z,10.38
2022-12-13T02:32:09.170Z,8.88
2022-12-13T02:34:59.649Z,7.95
2022-12-13T02:37:37.674Z,8.73
2022-12-13T02:40:32.782Z,8.88
2022-12-13T02:43:08.854Z,8.48
2022-12-13T02:45:46.706Z,8.65
2022-12-13T02:48:19.498Z,8.32
2022-12-13T02:50:48.420Z,8.95
2022-12-13T02:53:17.692Z,7.78
2022-12-13T02:55:45.023Z,8.32
2022-12-13T02:58:19.717Z,8.45
2022-12-13T03:06:33.684Z,8.20
2022-12-13T03:09:35.610Z,8.20
2022-12-13T03:12:38.981Z,7.97
2022-12-13T03:15:25.219Z,8.68
2022-12-13T03:18:05.003Z,9.13
2022-12-13T03:20:32.624Z,8.15
2022-12-13T03:23:00.435Z,7.40
2022-12-13T03:25:32.444Z,9.23
2022-12-13T03:28:02.075Z,7.93
2022-12-13T03:30:31.290Z,8.60
2022-12-13T03:32:58.696Z,9.27
2022-12-13T03:35:34.957Z,8.65
2022-12-13T03:38:13.465Z,7.95
2022-12-13T03:40:52.662Z,8.88
2022-12-13T03:43:21.724Z,8.57
2022-12-13T03:45:50.605Z,8.07
2022-12-13T03:48:22.115Z,7.60
2022-12-13T03:50:51.084Z,9.48
2022-12-13T03:53:22.232Z,7.82
2022-12-13T03:56:01.751Z,7.63
2022-12-13T03:58:35.635Z,7.43
2022-12-13T04:01:09.747Z,7.85
2022-12-13T04:03:38.662Z,8.13
2022-12-13T04:06:07.180Z,8.60
2022-12-13T04:08:36.115Z,7.95
2022-12-13T04:11:22.267Z,8.75
2022-12-13T04:13:49.569Z,9.43
2022-12-13T04:16:16.969Z,7.88
2022-12-13T04:18:44.271Z,10.18
2022-12-13T04:21:11.720Z,7.80
2022-12-13T04:23:38.962Z,8.70
2022-12-13T04:26:06.301Z,8.13
2022-12-13T04:28:33.539Z,8.15
2022-12-13T04:31:00.835Z,8.40
2022-12-13T04:33:28.287Z,8.45
2022-12-13T04:35:55.658Z,8.93
2022-12-13T04:38:22.908Z,9.13
2022-12-13T04:40:50.240Z,8.80
2022-12-13T04:43:17.552Z,8.52
2022-12-13T04:45:44.877Z,8.23
2022-12-13T04:48:12.108Z,8.10
2022-12-13T04:50:39.316Z,9.05
2022-12-13T04:53:06.573Z,8.50
2022-12-13T04:55:33.832Z,9.57
2022-12-13T04:58:01.126Z,8.75
2022-12-13T05:00:28.700Z,8.70
2022-12-13T05:02:56.107Z,9.60
2022-12-13T05:05:23.404Z,7.50
2022-12-13T05:07:50.622Z,8.70
2022-12-13T05:10:34.149Z,8.52
2022-12-13T05:13:05.478Z,8.15
2022-12-13T05:15:33.431Z,10.13
2022-12-13T05:18:10.024Z,8.07
2022-12-13T05:20:39.634Z,8.70
2022-12-13T05:23:07.063Z,9.25
2022-12-13T05:25:37.101Z,8.45
2022-12-13T05:28:08.862Z,8.60
2022-12-13T05:30:53.296Z,8.90
2022-12-13T05:33:20.528Z,8.23
2022-12-13T05:35:48.297Z,8.48
2022-12-13T05:38:15.734Z,7.35
2022-12-13T05:40:43.474Z,9.25
2022-12-13T05:43:21.282Z,8.52
2022-12-13T05:45:50.217Z,8.05
2022-12-13T05:48:24.141Z,8.43
2022-12-13T05:53:37.749Z,9.35
2022-12-13T05:56:05.280Z,9.80
2022-12-13T05:58:36.096Z,9.48
2022-12-13T06:01:12.879Z,10.98
2022-12-13T06:03:41.180Z,9.30
2022-12-13T06:06:10.596Z,10.25
2022-12-13T06:08:38.247Z,10.10
2022-12-13T06:11:09.791Z,9.20
2022-12-13T06:13:43.791Z,9.93
2022-12-13T06:16:22.494Z,7.93
2022-12-13T06:18:57.528Z,11.18
2022-12-13T06:21:32.179Z,11.20
2022-12-13T06:24:11.249Z,10.27
2022-12-13T06:26:38.597Z,9.68
2022-12-13T06:29:05.837Z,10.45
2022-12-13T06:31:33.042Z,10.48
2022-12-13T06:34:14.236Z,12.02
2022-12-13T06:36:42.618Z,9.38
2022-12-13T06:39:10.069Z,9.32
2022-12-13T06:41:37.407Z,12.23
2022-12-13T06:44:05.065Z,10.00
2022-12-13T06:46:32.932Z,10.10
2022-12-13T06:49:00.518Z,10.07
2022-12-13T06:51:32.865Z,10.70
2022-12-13T06:54:03.540Z,11.38
2022-12-13T06:56:32.777Z,10.00
2022-12-13T06:59:01.938Z,9.77
2022-12-13T07:01:37.243Z,9.93
2022-12-13T07:04:30.288Z,8.93
2022-12-13T07:06:53.472Z,9.77
2022-12-13T07:09:20.942Z,11.02
2022-12-13T07:11:51.970Z,8.10
2022-12-13T07:14:19.941Z,8.45
2022-12-13T07:16:47.243Z,9.88
2022-12-13T07:19:24.125Z,8.82
2022-12-13T07:21:52.112Z,8.23
2022-12-13T07:24:19.516Z,9.65
2022-12-13T07:26:46.861Z,9.18
2022-12-13T07:29:22.531Z,10.38
2022-12-13T07:31:50.290Z,9.23
2022-12-13T07:34:17.720Z,8.68
2022-12-13T07:36:44.973Z,8.82
2022-12-13T07:39:12.256Z,9.23
2022-12-13T07:41:39.494Z,8.32
2022-12-13T07:44:06.732Z,9.88
2022-12-13T07:46:34.267Z,9.73
2022-12-13T07:49:05.519Z,9.40
2022-12-13T07:51:36.092Z,9.85
2022-12-13T07:54:06.847Z,10.05
2022-12-13T07:56:35.032Z,12.40
2022-12-13T07:59:02.305Z,9.18
2022-12-13T08:01:31.083Z,10.10
2022-12-13T08:03:58.341Z,10.15
2022-12-13T08:06:25.566Z,11.27
2022-12-13T08:08:57.076Z,9.80
2022-12-13T08:11:24.686Z,11.27
2022-12-13T08:13:53.458Z,10.65
2022-12-13T08:16:27.875Z,10.30
2022-12-13T08:19:01.904Z,12.43
2022-12-13T08:24:30.740Z,11.88
2022-12-13T08:29:33.967Z,11.73
2022-12-13T08:32:05.314Z,10.50
2022-12-13T08:34:32.651Z,13.65
2022-12-13T08:37:01.920Z,11.73
2022-12-13T08:39:36.327Z,11.48
2022-12-13T08:42:18.911Z,11.80
2022-12-13T08:44:51.617Z,11.65
2022-12-13T08:47:26.395Z,11.02
2022-12-13T08:50:04.164Z,12.75
2022-12-13T08:52:39.156Z,12.95
2022-12-13T08:55:07.549Z,11.65
2022-12-13T08:57:36.977Z,12.82
2022-12-13T09:00:09.036Z,14.02
2022-12-13T09:02:38.465Z,13.35
2022-12-13T09:05:08.302Z,13.93
2022-12-13T09:07:37.244Z,14.32
2022-12-13T09:10:07.332Z,15.40
2022-12-13T09:13:01.497Z,14.48
2022-12-13T09:15:33.763Z,13.77
2022-12-13T09:18:04.744Z,12.20
2022-12-13T09:20:41.608Z,15.13
2022-12-13T09:23:13.990Z,13.23
2022-12-13T09:25:55.412Z,13.48
2022-12-13T09:28:23.073Z,12.65
2022-12-13T09:30:50.758Z,11.30
2022-12-13T09:33:30.046Z,11.30
2022-12-13T09:36:01.298Z,11.45
2022-12-13T09:38:29.378Z,11.85
2022-12-13T09:41:00.882Z,13.63
2022-12-13T09:43:42.559Z,13.05
2022-12-13T09:46:27.514Z,12.90
2022-12-13T09:49:04.995Z,11.65
2022-12-13T09:51:45.475Z,12.38
2022-12-13T09:54:22.093Z,12.50
2022-12-13T09:56:54.554Z,13.02
2022-12-13T09:59:35.282Z,14.93
2022-12-13T10:02:37.592Z,14.70
2022-12-13T10:05:34.174Z,13.38
2022-12-13T10:08:11.482Z,13.80
2022-12-13T10:10:38.879Z,12.27
2022-12-13T10:13:28.052Z,14.15
2022-12-13T10:16:06.720Z,12.30
2022-12-13T10:18:39.477Z,14.77
2022-12-13T10:21:21.072Z,11.85
2022-12-13T10:26:39.987Z,14.20
2022-12-13T10:29:08.246Z,12.70
2022-12-13T10:31:45.223Z,11.85
2022-12-13T10:34:24.413Z,14.13
2022-12-13T10:36:52.085Z,13.40
2022-12-13T10:39:38.581Z,13.80
2022-12-13T10:42:22.947Z,12.90
2022-12-13T10:45:14.473Z,13.75
2022-12-13T10:47:44.398Z,13.02
2022-12-13T10:50:27.894Z,15.27
2022-12-13T10:52:57.077Z,14.15
2022-12-13T10:55:43.068Z,14.00
2022-12-13T10:58:19.457Z,13.63
2022-12-13T11:00:49.172Z,18.08
2022-12-13T11:03:32.830Z,13.13
2022-12-13T11:06:07.077Z,11.82
2022-12-13T11:08:34.729Z,9.88
2022-12-13T11:11:04.793Z,11.27
2022-12-13T11:14:06.121Z,11.13
2022-12-13T11:16:37.443Z,14.18
2022-12-13T11:19:18.312Z,8.55
2022-12-13T11:21:49.950Z,11.57
2022-12-13T11:24:33.109Z,9.95
2022-12-13T11:27:20.378Z,9.20
2022-12-13T11:30:03.729Z,10.48
2022-12-13T11:32:59.255Z,8.65
2022-12-13T11:35:48.710Z,8.88
2022-12-13T11:38:28.690Z,9.65
2022-12-13T11:41:11.122Z,8.32
2022-12-13T11:43:47.038Z,8.48
2022-12-13T11:46:22.131Z,11.40
2022-12-13T11:49:19.907Z,9.07
2022-12-13T11:52:19.072Z,7.63
2022-12-13T11:55:05.329Z,9.60
2022-12-13T11:57:51.445Z,7.32
2022-12-13T12:00:34.123Z,7.18
2022-12-13T12:03:27.477Z,7.75
2022-12-13T12:06:22.579Z,8.13
2022-12-13T12:09:05.343Z,8.00
2022-12-13T12:11:39.681Z,6.90
2022-12-13T12:14:15.194Z,8.73
2022-12-13T12:16:52.237Z,7.72
2022-12-13T12:19:36.002Z,5.97
2022-12-13T12:22:14.597Z,8.30
2022-12-13T12:24:57.337Z,6.35
2022-12-13T12:27:38.976Z,7.07
2022-12-13T12:30:42.690Z,6.75
2022-12-13T12:33:48.688Z,11.43
2022-12-13T12:36:39.270Z,11.82
2022-12-13T12:39:26.565Z,12.00
2022-12-13T12:42:40.248Z,10.38
2022-12-13T12:49:01.793Z,11.00
2022-12-13T12:51:51.991Z,12.35
2022-12-13T12:55:10.006Z,8.95
2022-12-13T12:57:42.869Z,20.55
2022-12-13T13:00:13.144Z,12.40
2022-12-13T13:02:51.395Z,30.75
2022-12-13T13:05:42.749Z,16.83
2022-12-13T13:08:20.324Z,14.20
2022-12-13T13:10:49.859Z,16.10
2022-12-13T13:13:46.222Z,11.18
2022-12-13T13:16:37.749Z,15.77
2022-12-13T13:19:12.241Z,13.07
2022-12-13T13:21:50.387Z,10.98
2022-12-13T13:24:30.081Z,13.32
2022-12-13T13:27:29.398Z,12.52
2022-12-13T13:30:07.540Z,12.70
2022-12-13T13:32:39.629Z,9.98
2022-12-13T13:35:37.643Z,16.75
2022-12-13T13:38:16.829Z,18.05
2022-12-13T13:40:46.221Z,12.40
2022-12-13T13:43:17.108Z,13.35
2022-12-13T13:45:50.364Z,19.90
2022-12-13T13:48:55.689Z,15.85
2022-12-13T13:51:25.984Z,21.98
2022-12-13T13:54:02.131Z,15.48
2022-12-13T13:56:54.564Z,15.68
2022-12-13T13:59:57.855Z,18.75
2022-12-13T14:02:38.133Z,14.10
2022-12-13T14:05:17.531Z,14.75
2022-12-13T14:08:24.136Z,15.18
2022-12-13T14:11:19.230Z,11.55
2022-12-13T14:13:55.534Z,11.30
2022-12-13T14:17:00.358Z,11.25
2022-12-13T14:19:45.983Z,12.10
2022-12-13T14:22:36.414Z,13.23
2022-12-13T14:25:41.634Z,16.38
2022-12-13T14:28:24.420Z,11.93
2022-12-13T14:30:57.445Z,17.77
2022-12-13T14:33:26.614Z,16.95
2022-12-13T14:35:57.661Z,12.77
2022-12-13T14:38:27.617Z,14.70
2022-12-13T14:40:58.613Z,12.95
2022-12-13T14:43:28.802Z,15.43
2022-12-13T14:45:59.143Z,11.95
2022-12-13T14:48:35.995Z,16.20
2022-12-13T14:51:04.665Z,13.50
2022-12-13T14:53:37.918Z,12.30
2022-12-13T14:56:27.804Z,12.80
2022-12-13T14:59:11.716Z,13.68
2022-12-13T15:01:39.305Z,12.60
2022-12-13T15:04:21.994Z,16.83
2022-12-13T15:07:04.032Z,14.20
2022-12-13T15:09:34.925Z,20.90
2022-12-13T15:12:23.540Z,15.23
2022-12-13T15:14:56.670Z,17.73
2022-12-13T15:17:39.234Z,13.85
2022-12-13T15:20:28.867Z,16.33
2022-12-13T15:23:22.693Z,15.88
2022-12-13T15:26:28.989Z,14.90
2022-12-13T15:29:09.468Z,13.00
2022-12-13T15:31:40.078Z,12.93
2022-12-13T15:34:30.824Z,15.50
2022-12-13T15:37:05.919Z,15.27
2022-12-13T15:39:48.124Z,14.60
2022-12-13T15:42:31.060Z,14.50
2022-12-13T15:45:02.778Z,15.00
2022-12-13T15:47:30.922Z,16.20
2022-12-13T15:50:04.560Z,14.82
2022-12-13T15:52:35.486Z,15.37
2022-12-13T15:55:08.632Z,12.95
2022-12-13T15:57:51.340Z,15.32
2022-12-13T16:00:31.025Z,14.80
2022-12-13T16:03:09.104Z,14.68
2022-12-13T16:05:42.521Z,15.30
2022-12-13T16:08:25.212Z,14.18
2022-12-13T16:10:53.523Z,16.58
2022-12-13T16:13:27.671Z,15.30
2022-12-13T16:16:09.589Z,16.23
2022-12-13T16:18:51.099Z,14.45
2022-12-13T16:21:18.375Z,15.18
2022-12-13T16:23:48.548Z,17.30
2022-12-13T16:26:23.027Z,20.10
2022-12-13T16:28:50.353Z,19.35
2022-12-13T16:31:24.977Z,21.33
2022-12-13T16:36:20.124Z,17.13
2022-12-13T16:38:47.462Z,20.33
2022-12-13T16:41:15.682Z,19.35
2022-12-13T16:43:56.624Z,18.70
2022-12-13T16:47:11.962Z,19.85
2022-12-13T16:49:25.834Z,18.38
2022-12-13T16:51:53.508Z,19.52
2022-12-13T16:54:22.238Z,17.20
2022-12-13T16:56:50.590Z,20.92
2022-12-13T16:59:20.827Z,16.77
2022-12-13T17:01:48.818Z,17.52
2022-12-13T17:04:21.065Z,21.02
2022-12-13T17:06:50.248Z,16.55
2022-12-13T17:09:18.305Z,21.42
2022-12-13T17:11:45.892Z,18.40
2022-12-13T17:14:13.233Z,21.00
2022-12-13T17:16:40.480Z,18.55
2022-12-13T17:19:10.985Z,18.05
2022-12-13T17:21:38.312Z,17.60
2022-12-13T17:24:05.960Z,19.05
2022-12-13T17:26:33.250Z,19.88
2022-12-13T17:29:00.477Z,18.15
2022-12-13T17:31:33.401Z,17.95
2022-12-13T17:34:03.372Z,20.15
2022-12-13T17:36:33.974Z,18.13
2022-12-13T17:39:02.918Z,21.05
2022-12-13T17:41:30.332Z,21.58
2022-12-13T17:44:01.261Z,21.40
2022-12-13T17:46:28.581Z,24.58
2022-12-13T17:48:56.141Z,35.20
2022-12-13T17:51:23.707Z,27.00
2022-12-13T17:53:51.020Z,26.00
2022-12-13T17:56:19.664Z,25.55
2022-12-13T17:58:47.077Z,26.30
2022-12-13T18:01:17.511Z,30.95
2022-12-13T18:03:45.248Z,29.58
2022-12-13T18:06:12.505Z,27.73
2022-12-13T18:08:42.375Z,33.53
2022-12-13T18:13:57.633Z,30.52
2022-12-13T18:16:34.135Z,26.35
2022-12-13T18:19:06.107Z,30.13
2022-12-13T18:21:34.120Z,31.90
2022-12-13T18:24:01.376Z,28.25
2022-12-13T18:26:28.864Z,29.10
2022-12-13T18:28:56.144Z,30.33
2022-12-13T18:31:25.675Z,29.45
2022-12-13T18:33:54.099Z,32.78
2022-12-13T18:36:24.370Z,28.50
2022-12-13T18:38:52.053Z,29.00
2022-12-13T18:41:22.409Z,27.65
2022-12-13T18:43:55.935Z,31.70
2022-12-13T18:46:28.500Z,24.65
2022-12-13T18:48:56.906Z,24.73
2022-12-13T18:51:24.674Z,25.75
2022-12-13T18:53:52.250Z,27.95
2022-12-13T18:56:19.805Z,29.55
2022-12-13T18:58:48.436Z,31.80
2022-12-13T19:01:17.187Z,28.13
2022-12-13T19:03:46.451Z,26.75
2022-12-13T19:06:19.441Z,24.38
2022-12-13T19:08:51.743Z,31.40
2022-12-13T19:11:19.644Z,29.20
2022-12-13T19:13:47.459Z,33.03
2022-12-13T19:16:17.945Z,27.88
2022-12-13T19:18:45.636Z,29.85
2022-12-13T19:21:16.136Z,29.83
2022-12-13T19:23:43.458Z,28.58
2022-12-13T19:26:13.285Z,28.95
2022-12-13T19:28:41.649Z,32.45
2022-12-13T19:31:13.736Z,31.02
2022-12-13T19:33:41.759Z,25.30
2022-12-13T19:36:09.873Z,26.70
2022-12-13T19:38:38.043Z,26.77
2022-12-13T19:41:14.442Z,28.38
2022-12-13T19:43:42.120Z,27.73
2022-12-13T19:46:10.117Z,27.85
2022-12-13T19:48:37.895Z,27.63
2022-12-13T19:51:09.881Z,24.13
2022-12-13T19:53:38.483Z,22.80
2022-12-13T19:56:15.226Z,25.92
2022-12-13T19:58:42.512Z,25.73
2022-12-13T20:01:10.275Z,33.97
2022-12-13T20:03:42.865Z,28.58
2022-12-13T20:06:12.817Z,24.45
2022-12-13T20:08:40.696Z,27.45
2022-12-13T20:11:11.599Z,25.08
2022-12-13T20:13:39.059Z,23.63
2022-12-13T20:16:07.392Z,25.02
2022-12-13T20:18:35.187Z,26.73
2022-12-13T20:21:13.186Z,26.08
2022-12-13T20:23:49.756Z,24.33
2022-12-13T20:26:20.290Z,25.25
2022-12-13T20:28:48.248Z,22.13
2022-12-13T20:31:24.413Z,24.70
2022-12-13T20:34:03.099Z,21.85
2022-12-13T20:36:31.544Z,23.42
2022-12-13T20:39:00.839Z,23.10
2022-12-13T20:41:30.974Z,25.33
2022-12-13T20:44:01.339Z,24.13
2022-12-13T20:46:30.017Z,24.52
2022-12-13T20:48:59.965Z,24.00
2022-12-13T20:51:29.542Z,24.98
2022-12-13T20:53:57.736Z,22.67
2022-12-13T20:56:27.882Z,23.90
2022-12-13T20:58:55.607Z,29.05
2022-12-13T21:01:26.612Z,23.50
2022-12-13T21:03:55.909Z,21.00
2022-12-13T21:06:23.489Z,21.48
2022-12-13T21:09:00.122Z,22.77
2022-12-13T21:11:33.187Z,20.00
2022-12-13T21:14:20.954Z,22.02
2022-12-13T21:17:00.519Z,23.30
2022-12-13T21:19:39.469Z,23.27
2022-12-13T21:22:07.455Z,24.80
2022-12-13T21:24:34.755Z,22.27
2022-12-13T21:27:02.065Z,30.48
2022-12-13T21:29:29.399Z,28.08
2022-12-13T21:31:56.883Z,24.95
2022-12-13T21:34:24.312Z,23.05
2022-12-13T21:36:53.028Z,24.60
2022-12-13T21:39:23.177Z,24.75
2022-12-13T21:41:51.043Z,22.95
2022-12-13T21:44:18.899Z,25.70
2022-12-13T21:49:33.704Z,21.98
2022-12-13T21:52:01.005Z,23.95
2022-12-13T21:54:28.256Z,21.23
2022-12-13T21:57:14.039Z,22.33
2022-12-13T21:59:41.304Z,20.25
2022-12-13T22:02:18.234Z,22.95
2022-12-13T22:04:57.010Z,21.15
2022-12-13T22:07:28.252Z,19.80
2022-12-13T22:09:56.999Z,20.60
2022-12-13T22:12:29.699Z,20.35
2022-12-13T22:14:57.043Z,22.85
2022-12-13T22:17:31.297Z,19.52
2022-12-13T22:20:03.923Z,20.23
2022-12-13T22:22:31.234Z,18.95
2022-12-13T22:24:58.517Z,20.77
2022-12-13T22:27:26.090Z,18.10
2022-12-13T22:29:57.037Z,19.67
2022-12-13T22:32:29.612Z,20.00
2022-12-13T22:34:57.220Z,20.90
2022-12-13T22:37:25.124Z,19.23
2022-12-13T22:39:52.449Z,17.92
2022-12-13T22:42:20.232Z,18.13
2022-12-13T22:44:47.766Z,18.55
2022-12-13T22:47:15.060Z,18.38
2022-12-13T22:49:42.337Z,17.50
2022-12-13T22:52:09.744Z,17.65
2022-12-13T22:54:36.982Z,19.08
2022-12-13T22:57:04.393Z,16.15
2022-12-13T22:59:31.761Z,15.88
2022-12-13T23:02:02.706Z,18.27
2022-12-13T23:04:31.907Z,16.40
2022-12-13T23:06:59.481Z,15.02
2022-12-13T23:09:26.931Z,17.27
2022-12-13T23:12:13.116Z,15.68
2022-12-13T23:14:40.446Z,16.70
2022-12-13T23:17:08.365Z,14.82
2022-12-13T23:19:50.702Z,15.93
2022-12-13T23:22:22.017Z,15.48
2022-12-13T23:24:50.125Z,15.23
2022-12-13T23:27:17.599Z,15.80
2022-12-13T23:29:44.948Z,13.88
2022-12-13T23:32:12.754Z,14.40
2022-12-13T23:34:40.107Z,15.32
2022-12-13T23:37:07.402Z,15.15
2022-12-13T23:39:34.644Z,14.70
2022-12-13T23:42:01.890Z,15.65
2022-12-13T23:44:29.132Z,14.50
2022-12-13T23:46:56.433Z,13.80
2022-12-13T23:49:23.666Z,15.23
2022-12-13T23:51:50.957Z,14.18
2022-12-13T23:54:20.127Z,14.30
2022-12-13T23:56:48.170Z,13.75
2022-12-13T23:59:15.446Z,14.88
